createdAt,value
2022-11-13T00:00:17.269Z,3.45
2022-11-13T00:03:04.853Z,3.52
2022-11-13T00:06:00.872Z,3.43
2022-11-13T00:08:49.243Z,3.50
2022-11-13T00:11:37.985Z,3.50
2022-11-13T00:14:25.865Z,3.53
2022-11-13T00:17:13.663Z,3.74
2022-11-13T00:20:01.465Z,3.72
2022-11-13T00:22:49.070Z,3.68
2022-11-13T00:25:37.550Z,3.68
2022-11-13T00:28:27.544Z,3.68
2022-11-13T00:31:16.653Z,3.76
2022-11-13T00:34:20.018Z,3.79
2022-11-13T00:37:12.324Z,3.74
2022-11-13T00:39:59.971Z,3.84
2022-11-13T00:42:47.842Z,3.95
2022-11-13T00:45:36.955Z,3.93
2022-11-13T00:48:25.487Z,3.75
2022-11-13T00:51:13.193Z,3.71
2022-11-13T00:54:00.767Z,3.64
2022-11-13T00:56:48.367Z,3.69
2022-11-13T00:59:35.926Z,3.58
2022-11-13T01:02:24.788Z,3.50
2022-11-13T01:05:12.479Z,3.45
2022-11-13T01:08:00.105Z,3.48
2022-11-13T01:10:53.419Z,3.36
2022-11-13T01:13:42.351Z,3.42
2022-11-13T01:16:30.531Z,3.46
2022-11-13T01:19:19.600Z,3.66
2022-11-13T01:22:07.262Z,3.77
2022-11-13T01:24:54.823Z,3.64
2022-11-13T01:27:42.519Z,3.54
2022-11-13T01:30:30.002Z,3.49
2022-11-13T01:33:17.551Z,3.53
2022-11-13T01:36:09.510Z,3.54
2022-11-13T01:38:58.021Z,3.56
2022-11-13T01:41:45.572Z,3.62
2022-11-13T01:44:49.561Z,3.58
2022-11-13T01:47:37.772Z,3.52
2022-11-13T01:50:25.561Z,3.51
2022-11-13T01:53:14.657Z,3.38
2022-11-13T01:56:02.458Z,3.32
2022-11-13T01:58:55.640Z,3.25
2022-11-13T02:01:43.527Z,3.22
2022-11-13T02:04:32.923Z,3.20
2022-11-13T02:07:22.998Z,3.25
2022-11-13T02:10:12.373Z,3.28
2022-11-13T02:12:59.896Z,3.24
2022-11-13T02:15:48.809Z,3.10
2022-11-13T02:18:37.846Z,2.98
2022-11-13T02:21:37.282Z,2.92
2022-11-13T02:24:32.376Z,2.99
2022-11-13T02:27:27.320Z,2.97
2022-11-13T02:30:23.625Z,2.97
2022-11-13T02:33:24.616Z,3.05
2022-11-13T02:36:14.907Z,3.06
2022-11-13T02:39:07.654Z,3.08
2022-11-13T02:41:56.907Z,3.17
2022-11-13T02:44:44.300Z,3.27
2022-11-13T02:47:31.839Z,3.26
2022-11-13T02:50:19.770Z,3.42
2022-11-13T02:53:07.777Z,3.30
2022-11-13T02:55:55.475Z,3.24
2022-11-13T02:58:44.462Z,3.21
2022-11-13T03:01:32.346Z,3.10
2022-11-13T03:04:19.903Z,3.00
2022-11-13T03:07:07.556Z,3.03
2022-11-13T03:09:55.053Z,2.97
2022-11-13T03:12:43.029Z,2.93
2022-11-13T03:15:32.232Z,2.81
2022-11-13T03:18:19.814Z,2.67
2022-11-13T03:21:10.038Z,2.58
2022-11-13T03:23:58.356Z,2.54
2022-11-13T03:26:45.947Z,2.48
2022-11-13T03:29:33.564Z,2.43
2022-11-13T03:32:22.368Z,2.58
2022-11-13T03:35:10.437Z,2.52
2022-11-13T03:37:57.982Z,2.51
2022-11-13T03:40:45.590Z,2.69
2022-11-13T03:43:33.269Z,2.80
2022-11-13T03:46:21.040Z,2.94
2022-11-13T03:49:10.047Z,3.02
2022-11-13T03:51:57.741Z,2.94
2022-11-13T03:54:45.368Z,2.99
2022-11-13T03:57:33.147Z,3.02
2022-11-13T04:00:20.700Z,3.12
2022-11-13T04:03:08.495Z,3.14
2022-11-13T04:05:57.301Z,3.13
2022-11-13T04:08:44.994Z,3.23
2022-11-13T04:11:32.876Z,3.22
2022-11-13T04:14:20.417Z,3.25
2022-11-13T04:17:08.085Z,3.26
2022-11-13T04:19:55.561Z,3.19
2022-11-13T04:22:44.632Z,3.23
2022-11-13T04:25:32.130Z,3.25
2022-11-13T04:28:19.620Z,3.29
2022-11-13T04:31:07.703Z,3.43
2022-11-13T04:33:55.456Z,3.30
2022-11-13T04:36:42.871Z,3.28
2022-11-13T04:39:31.833Z,3.21
2022-11-13T04:42:37.116Z,3.11
2022-11-13T04:45:27.399Z,2.79
2022-11-13T04:48:15.003Z,2.74
2022-11-13T04:51:02.525Z,2.82
2022-11-13T04:53:50.017Z,2.88
2022-11-13T04:56:38.976Z,2.77
2022-11-13T04:59:26.856Z,2.71
2022-11-13T05:02:14.288Z,2.82
2022-11-13T05:05:05.266Z,2.71
2022-11-13T05:07:54.208Z,2.56
2022-11-13T05:10:41.840Z,2.55
2022-11-13T05:13:32.887Z,2.66
2022-11-13T05:16:20.605Z,2.83
2022-11-13T05:19:08.585Z,2.73
2022-11-13T05:21:56.098Z,2.59
2022-11-13T05:24:43.976Z,2.42
2022-11-13T05:27:32.353Z,2.39
2022-11-13T05:30:21.410Z,2.18
2022-11-13T05:33:09.265Z,2.16
2022-11-13T05:35:57.196Z,1.86
2022-11-13T05:38:45.019Z,1.82
2022-11-13T05:41:32.813Z,1.89
2022-11-13T05:44:20.211Z,2.04
2022-11-13T05:47:09.156Z,2.37
2022-11-13T05:49:56.938Z,2.79
2022-11-13T05:52:44.422Z,2.64
2022-11-13T05:55:32.039Z,3.00
2022-11-13T05:58:19.703Z,2.99
2022-11-13T06:01:09.377Z,3.10
2022-11-13T06:03:59.623Z,2.98
2022-11-13T06:06:47.157Z,3.11
2022-11-13T06:09:34.600Z,2.95
2022-11-13T06:12:22.287Z,2.96
2022-11-13T06:15:10.764Z,3.27
2022-11-13T06:17:58.223Z,3.31
2022-11-13T06:20:47.103Z,3.33
2022-11-13T06:23:35.876Z,3.33
2022-11-13T06:26:26.819Z,3.29
2022-11-13T06:29:15.648Z,3.40
2022-11-13T06:32:03.390Z,3.33
2022-11-13T06:34:51.075Z,3.21
2022-11-13T06:37:39.956Z,3.11
2022-11-13T06:40:27.412Z,3.14
2022-11-13T06:43:14.874Z,3.26
2022-11-13T06:46:06.148Z,3.27
2022-11-13T06:48:53.964Z,3.45
2022-11-13T06:51:41.622Z,3.24
2022-11-13T06:54:30.490Z,3.27
2022-11-13T06:57:18.369Z,3.31
2022-11-13T07:00:07.551Z,3.38
2022-11-13T07:02:55.091Z,3.45
2022-11-13T07:05:42.693Z,3.58
2022-11-13T07:08:30.656Z,3.63
2022-11-13T07:11:23.120Z,3.78
2022-11-13T07:14:12.427Z,3.86
2022-11-13T07:17:10.116Z,3.92
2022-11-13T07:19:58.546Z,3.94
2022-11-13T07:22:46.578Z,4.06
2022-11-13T07:25:34.519Z,4.00
2022-11-13T07:28:23.949Z,4.00
2022-11-13T07:31:13.515Z,4.05
2022-11-13T07:34:01.246Z,4.17
2022-11-13T07:36:48.711Z,4.21
2022-11-13T07:39:36.159Z,4.28
2022-11-13T07:42:23.599Z,4.47
2022-11-13T07:45:12.617Z,4.60
2022-11-13T07:48:00.810Z,4.71
2022-11-13T07:50:48.936Z,4.78
2022-11-13T07:53:38.905Z,4.98
2022-11-13T07:56:27.220Z,5.09
2022-11-13T07:59:14.892Z,5.28
2022-11-13T08:02:04.317Z,5.37
2022-11-13T08:04:51.839Z,5.50
2022-11-13T08:07:39.243Z,5.65
2022-11-13T08:10:26.884Z,5.69
2022-11-13T08:13:14.869Z,5.73
2022-11-13T08:16:03.045Z,5.83
2022-11-13T08:18:52.986Z,5.85
2022-11-13T08:21:40.676Z,6.02
2022-11-13T08:24:29.008Z,6.12
2022-11-13T08:27:17.124Z,6.11
2022-11-13T08:30:06.549Z,6.18
2022-11-13T08:32:56.019Z,6.27
2022-11-13T08:35:52.839Z,6.29
2022-11-13T08:38:42.109Z,6.35
2022-11-13T08:41:30.801Z,6.46
2022-11-13T08:44:19.618Z,6.48
2022-11-13T08:47:08.540Z,6.47
2022-11-13T08:49:57.294Z,6.52
2022-11-13T08:52:47.851Z,6.71
2022-11-13T08:55:36.175Z,6.60
2022-11-13T08:58:24.338Z,6.65
2022-11-13T09:01:11.948Z,6.58
2022-11-13T09:03:59.520Z,6.67
2022-11-13T09:06:47.659Z,6.71
2022-11-13T09:09:37.741Z,6.73
2022-11-13T09:12:26.180Z,6.77
2022-11-13T09:15:15.346Z,6.82
2022-11-13T09:18:06.379Z,6.83
2022-11-13T09:20:54.933Z,6.76
2022-11-13T09:23:43.721Z,6.72
2022-11-13T09:26:33.460Z,6.74
2022-11-13T09:29:23.411Z,6.77
2022-11-13T09:32:12.602Z,6.83
2022-11-13T09:35:01.577Z,6.80
2022-11-13T09:37:54.201Z,6.91
2022-11-13T09:40:49.282Z,6.78
2022-11-13T09:43:44.531Z,6.79
2022-11-13T09:46:38.370Z,6.83
2022-11-13T09:49:30.937Z,6.82
2022-11-13T09:52:22.996Z,6.91
2022-11-13T09:55:15.518Z,6.90
2022-11-13T09:58:13.239Z,6.92
2022-11-13T10:01:04.245Z,6.85
2022-11-13T10:04:02.392Z,7.00
2022-11-13T10:07:05.755Z,7.09
2022-11-13T10:10:28.897Z,6.99
2022-11-13T10:13:22.203Z,6.83
2022-11-13T10:16:30.933Z,6.70
2022-11-13T10:19:26.152Z,6.80
2022-11-13T10:22:36.048Z,6.72
2022-11-13T10:25:27.904Z,6.77
2022-11-13T10:28:50.184Z,6.72
2022-11-13T10:31:30.531Z,6.57
2022-11-13T10:34:20.113Z,6.59
2022-11-13T10:37:28.257Z,6.68
2022-11-13T10:40:26.072Z,6.66
2022-11-13T10:43:17.195Z,6.72
2022-11-13T10:46:06.440Z,6.74
2022-11-13T10:48:55.423Z,6.74
2022-11-13T10:51:43.127Z,6.81
2022-11-13T10:54:32.743Z,6.77
2022-11-13T10:57:28.916Z,6.85
2022-11-13T11:00:26.527Z,7.01
2022-11-13T11:03:19.441Z,7.05
2022-11-13T11:06:09.540Z,6.91
2022-11-13T11:09:08.403Z,6.98
2022-11-13T11:12:22.096Z,6.88
2022-11-13T11:15:25.598Z,6.90
2022-11-13T11:18:25.799Z,7.05
2022-11-13T11:21:21.054Z,7.13
2022-11-13T11:24:15.149Z,7.18
2022-11-13T11:27:07.142Z,7.22
2022-11-13T11:30:04.582Z,7.15
2022-11-13T11:32:58.467Z,7.19
2022-11-13T11:35:50.726Z,7.26
2022-11-13T11:38:51.669Z,7.28
2022-11-13T11:41:47.305Z,7.28
2022-11-13T11:44:48.636Z,7.39
2022-11-13T11:47:36.500Z,7.48
2022-11-13T11:50:34.207Z,7.35
2022-11-13T11:53:31.171Z,7.41
2022-11-13T11:56:26.146Z,7.48
2022-11-13T11:59:32.243Z,7.43
2022-11-13T12:02:48.231Z,7.61
2022-11-13T12:05:45.021Z,7.50
2022-11-13T12:08:44.765Z,7.46
2022-11-13T12:11:36.146Z,7.51
2022-11-13T12:14:37.222Z,7.46
2022-11-13T12:17:41.786Z,7.51
2022-11-13T12:20:39.163Z,7.46
2022-11-13T12:23:38.314Z,7.49
2022-11-13T12:26:31.908Z,7.49
2022-11-13T12:29:39.255Z,7.47
2022-11-13T12:32:42.835Z,7.61
2022-11-13T12:35:32.019Z,7.69
2022-11-13T12:38:31.754Z,7.70
2022-11-13T12:41:29.372Z,7.68
2022-11-13T12:44:27.275Z,7.64
2022-11-13T12:47:15.710Z,7.68
2022-11-13T12:50:05.941Z,7.76
2022-11-13T12:53:00.967Z,7.71
2022-11-13T12:56:00.202Z,7.69
2022-11-13T12:59:23.813Z,7.66
2022-11-13T13:02:30.616Z,7.68
2022-11-13T13:05:39.814Z,7.67
2022-11-13T13:08:47.314Z,7.68
2022-11-13T13:11:44.824Z,7.68
2022-11-13T13:14:53.140Z,7.73
2022-11-13T13:17:42.518Z,7.75
2022-11-13T13:20:34.892Z,7.85
2022-11-13T13:23:29.784Z,7.83
2022-11-13T13:26:20.787Z,7.81
2022-11-13T13:29:20.402Z,7.81
2022-11-13T13:32:20.747Z,7.81
2022-11-13T13:35:16.407Z,7.82
2022-11-13T13:38:13.707Z,7.83
2022-11-13T13:41:22.409Z,7.79
2022-11-13T13:44:36.816Z,7.78
2022-11-13T13:47:29.797Z,7.84
2022-11-13T13:50:22.649Z,7.81
2022-11-13T13:53:13.328Z,7.78
2022-11-13T13:56:03.725Z,7.84
2022-11-13T13:58:52.055Z,7.76
2022-11-13T14:01:39.653Z,7.80
2022-11-13T14:04:28.999Z,7.81
2022-11-13T14:07:24.599Z,7.79
2022-11-13T14:10:18.095Z,7.80
2022-11-13T14:13:06.296Z,7.78
2022-11-13T14:16:04.239Z,7.78
2022-11-13T14:18:51.921Z,7.81
2022-11-13T14:21:39.987Z,7.83
2022-11-13T14:24:34.010Z,7.82
2022-11-13T14:27:25.771Z,7.81
2022-11-13T14:30:25.453Z,7.82
2022-11-13T14:33:18.563Z,7.79
2022-11-13T14:36:07.930Z,7.81
2022-11-13T14:38:55.883Z,7.81
2022-11-13T14:41:51.438Z,7.83
2022-11-13T14:44:39.498Z,7.81
2022-11-13T14:47:31.775Z,7.81
2022-11-13T14:50:25.459Z,7.83
2022-11-13T14:53:13.699Z,7.87
2022-11-13T14:56:04.653Z,7.86
2022-11-13T14:58:53.741Z,7.86
2022-11-13T15:01:41.715Z,7.86
2022-11-13T15:04:29.457Z,7.86
2022-11-13T15:07:29.617Z,7.91
2022-11-13T15:10:21.031Z,7.87
2022-11-13T15:13:13.255Z,7.89
2022-11-13T15:16:02.247Z,7.93
2022-11-13T15:18:53.369Z,7.90
2022-11-13T15:21:44.893Z,7.95
2022-11-13T15:24:35.655Z,7.97
2022-11-13T15:27:26.300Z,7.96
2022-11-13T15:30:14.335Z,7.98
2022-11-13T15:33:03.691Z,7.99
2022-11-13T15:35:51.834Z,7.96
2022-11-13T15:38:40.684Z,7.99
2022-11-13T15:41:32.822Z,8.01
2022-11-13T15:44:20.686Z,8.03
2022-11-13T15:47:23.619Z,8.02
2022-11-13T15:50:15.270Z,8.02
2022-11-13T15:53:05.633Z,8.04
2022-11-13T15:55:53.817Z,8.04
2022-11-13T15:58:41.752Z,8.06
2022-11-13T16:01:29.381Z,8.09
2022-11-13T16:04:17.276Z,8.09
2022-11-13T16:07:07.127Z,8.10
2022-11-13T16:09:55.667Z,8.15
2022-11-13T16:12:45.684Z,8.15
2022-11-13T16:15:33.397Z,8.15
2022-11-13T16:18:25.064Z,8.17
2022-11-13T16:21:14.669Z,8.16
2022-11-13T16:24:03.723Z,8.15
2022-11-13T16:26:56.728Z,8.13
2022-11-13T16:29:45.183Z,8.11
2022-11-13T16:32:32.743Z,8.23
2022-11-13T16:35:21.308Z,8.22
2022-11-13T16:38:13.750Z,8.25
2022-11-13T16:41:02.748Z,8.26
2022-11-13T16:43:50.295Z,8.25
2022-11-13T16:46:41.646Z,8.30
2022-11-13T16:49:29.030Z,8.29
2022-11-13T16:52:16.604Z,8.32
2022-11-13T16:55:06.664Z,8.34
2022-11-13T16:57:55.672Z,8.38
2022-11-13T17:00:43.369Z,8.39
2022-11-13T17:03:31.392Z,8.42
2022-11-13T17:06:26.472Z,8.42
2022-11-13T17:09:14.058Z,8.43
2022-11-13T17:12:01.496Z,8.45
2022-11-13T17:14:50.526Z,8.47
2022-11-13T17:17:38.301Z,8.48
2022-11-13T17:20:26.275Z,8.56
2022-11-13T17:23:16.266Z,8.55
2022-11-13T17:26:05.260Z,8.59
2022-11-13T17:28:53.324Z,8.62
2022-11-13T17:31:42.144Z,8.57
2022-11-13T17:34:29.904Z,8.58
2022-11-13T17:37:18.836Z,8.64
2022-11-13T17:40:10.726Z,8.68
2022-11-13T17:42:58.458Z,8.70
2022-11-13T17:45:49.610Z,8.72
2022-11-13T17:48:39.173Z,8.72
2022-11-13T17:51:26.756Z,8.73
2022-11-13T17:54:14.764Z,8.75
2022-11-13T17:57:03.083Z,8.74
2022-11-13T17:59:50.705Z,8.72
2022-11-13T18:02:39.434Z,8.70
2022-11-13T18:05:28.692Z,8.68
2022-11-13T18:08:16.337Z,8.68
2022-11-13T18:11:09.252Z,8.70
2022-11-13T18:13:57.212Z,8.72
2022-11-13T18:16:45.084Z,8.71
2022-11-13T18:19:33.135Z,8.71
2022-11-13T18:22:22.939Z,8.71
2022-11-13T18:25:11.231Z,8.69
2022-11-13T18:27:59.304Z,8.70
2022-11-13T18:30:49.722Z,8.71
2022-11-13T18:33:40.376Z,8.72
2022-11-13T18:36:28.157Z,8.74
2022-11-13T18:39:17.226Z,8.72
2022-11-13T18:42:05.345Z,8.74
2022-11-13T18:44:53.145Z,8.75
2022-11-13T18:47:40.564Z,8.74
2022-11-13T18:50:28.369Z,8.75
2022-11-13T18:53:16.252Z,8.74
2022-11-13T18:56:07.119Z,8.77
2022-11-13T18:58:56.056Z,8.75
2022-11-13T19:01:43.926Z,8.73
2022-11-13T19:04:31.806Z,8.74
2022-11-13T19:07:19.649Z,8.72
2022-11-13T19:10:08.228Z,8.76
2022-11-13T19:12:57.180Z,8.74
2022-11-13T19:15:44.933Z,8.76
2022-11-13T19:18:32.898Z,8.75
2022-11-13T19:21:21.621Z,8.75
2022-11-13T19:24:10.175Z,8.74
2022-11-13T19:26:57.673Z,8.75
2022-11-13T19:29:46.670Z,8.78
2022-11-13T19:32:34.608Z,8.78
2022-11-13T19:35:22.363Z,8.74
2022-11-13T19:38:10.177Z,8.76
2022-11-13T19:40:57.900Z,8.74
2022-11-13T19:43:45.858Z,8.70
2022-11-13T19:46:35.080Z,8.71
2022-11-13T19:49:23.048Z,8.68
2022-11-13T19:52:10.677Z,8.71
2022-11-13T19:54:58.519Z,8.70
2022-11-13T19:57:46.373Z,8.69
2022-11-13T20:00:34.527Z,8.67
2022-11-13T20:03:24.456Z,8.65
2022-11-13T20:06:13.549Z,8.61
2022-11-13T20:09:02.566Z,8.62
2022-11-13T20:11:50.765Z,8.61
2022-11-13T20:14:38.743Z,8.58
2022-11-13T20:17:26.427Z,8.58
2022-11-13T20:20:15.554Z,8.57
2022-11-13T20:23:03.115Z,8.57
2022-11-13T20:25:55.446Z,8.56
2022-11-13T20:28:43.244Z,8.53
2022-11-13T20:31:31.358Z,8.49
2022-11-13T20:34:19.612Z,8.49
2022-11-13T20:37:08.474Z,8.51
2022-11-13T20:39:57.274Z,8.49
2022-11-13T20:42:45.227Z,8.49
2022-11-13T20:45:33.066Z,8.48
2022-11-13T20:48:20.763Z,8.49
2022-11-13T20:51:09.842Z,8.55
2022-11-13T20:53:59.341Z,8.51
2022-11-13T20:56:47.005Z,8.52
2022-11-13T20:59:34.598Z,8.52
2022-11-13T21:02:22.170Z,8.58
2022-11-13T21:05:09.950Z,8.58
2022-11-13T21:07:57.477Z,8.57
2022-11-13T21:10:46.632Z,8.57
2022-11-13T21:13:34.566Z,8.64
2022-11-13T21:16:22.209Z,8.64
2022-11-13T21:19:11.549Z,8.62
2022-11-13T21:21:59.430Z,8.66
2022-11-13T21:24:47.123Z,8.71
2022-11-13T21:27:35.998Z,8.64
2022-11-13T21:30:24.110Z,8.70
2022-11-13T21:33:12.011Z,8.65
2022-11-13T21:36:05.752Z,8.62
2022-11-13T21:38:54.437Z,8.60
2022-11-13T21:41:41.944Z,8.61
2022-11-13T21:44:30.766Z,8.64
2022-11-13T21:47:18.652Z,8.68
2022-11-13T21:50:07.261Z,8.65
2022-11-13T21:52:54.903Z,8.64
2022-11-13T21:55:50.281Z,8.58
2022-11-13T21:58:39.990Z,8.65
2022-11-13T22:01:33.755Z,8.65
2022-11-13T22:04:25.230Z,8.64
2022-11-13T22:07:12.971Z,8.65
2022-11-13T22:10:06.948Z,8.58
2022-11-13T22:12:56.549Z,8.62
2022-11-13T22:15:44.443Z,8.63
2022-11-13T22:18:33.600Z,8.63
2022-11-13T22:21:21.734Z,8.63
2022-11-13T22:24:10.506Z,8.57
2022-11-13T22:26:58.468Z,8.53
2022-11-13T22:29:46.181Z,8.51
2022-11-13T22:32:33.879Z,8.50
2022-11-13T22:35:22.994Z,8.44
2022-11-13T22:38:11.392Z,8.40
2022-11-13T22:41:04.490Z,8.42
2022-11-13T22:43:54.283Z,8.36
2022-11-13T22:46:43.145Z,8.34
2022-11-13T22:49:30.745Z,8.35
2022-11-13T22:52:19.933Z,8.34
2022-11-13T22:55:08.573Z,8.35
2022-11-13T22:57:58.733Z,8.30
2022-11-13T23:00:46.146Z,8.31
2022-11-13T23:03:33.935Z,8.28
2022-11-13T23:06:25.092Z,8.26
2022-11-13T23:09:14.136Z,8.20
2022-11-13T23:12:01.659Z,8.21
2022-11-13T23:14:49.271Z,8.18
2022-11-13T23:17:36.936Z,8.19
2022-11-13T23:20:24.600Z,8.22
2022-11-13T23:23:12.872Z,8.21
2022-11-13T23:26:01.978Z,8.17
2022-11-13T23:28:49.720Z,8.16
2022-11-13T23:31:37.224Z,8.15
2022-11-13T23:34:45.544Z,8.11
2022-11-13T23:37:32.457Z,8.06
2022-11-13T23:40:19.961Z,8.10
2022-11-13T23:43:09.228Z,8.05
2022-11-13T23:45:57.140Z,8.06
2022-11-13T23:48:44.685Z,8.05
2022-11-13T23:51:32.240Z,8.03
2022-11-13T23:54:19.861Z,8.01
2022-11-13T23:57:07.266Z,7.96
2022-11-13T23:59:56.135Z,7.95
